createdAt,value
2023-05-30T00:03:13.872Z,62.07
2023-05-30T00:08:16.559Z,59.87
2023-05-30T00:13:20.479Z,59.78
2023-05-30T00:18:23.628Z,65.94
2023-05-30T00:23:26.195Z,62.32
2023-05-30T00:28:29.140Z,59.92
2023-05-30T00:33:32.245Z,59.36
2023-05-30T00:38:34.880Z,66.26
2023-05-30T00:43:38.655Z,63.04
2023-05-30T00:48:41.788Z,60.70
2023-05-30T00:53:44.860Z,58.97
2023-05-30T00:58:47.501Z,62.67
2023-05-30T01:03:51.307Z,65.35
2023-05-30T01:08:53.936Z,60.88
2023-05-30T01:14:38.321Z,59.23
2023-05-30T01:20:10.428Z,61.56
2023-05-30T01:25:22.267Z,64.94
2023-05-30T01:30:27.226Z,61.18
2023-05-30T01:35:29.826Z,59.61
2023-05-30T01:40:33.487Z,59.01
2023-05-30T01:45:54.840Z,65.12
2023-05-30T01:51:00.192Z,63.68
2023-05-30T01:56:04.453Z,60.32
2023-05-30T02:01:09.018Z,58.69
2023-05-30T02:06:12.184Z,65.55
2023-05-30T02:11:14.735Z,63.47
2023-05-30T02:16:19.507Z,59.59
2023-05-30T02:21:22.212Z,59.49
2023-05-30T02:26:27.250Z,66.25
2023-05-30T02:31:29.954Z,62.48
2023-05-30T02:36:33.921Z,60.11
2023-05-30T02:41:38.737Z,58.54
2023-05-30T02:46:41.347Z,64.87
2023-05-30T02:51:44.470Z,64.67
2023-05-30T02:56:47.072Z,61.23
2023-05-30T03:01:50.021Z,59.98
2023-05-30T03:06:52.754Z,58.88
2023-05-30T03:11:55.531Z,63.07
2023-05-30T03:16:58.082Z,64.96
2023-05-30T03:22:01.316Z,61.73
2023-05-30T03:27:05.059Z,59.19
2023-05-30T03:32:08.647Z,64.78
2023-05-30T03:37:11.437Z,64.41
2023-05-30T03:42:14.089Z,60.53
2023-05-30T03:47:16.707Z,59.75
2023-05-30T03:52:19.493Z,65.39
2023-05-30T03:57:22.192Z,61.99
2023-05-30T04:02:24.833Z,59.08
2023-05-30T04:07:28.337Z,64.23
2023-05-30T04:12:31.168Z,64.08
2023-05-30T04:17:33.787Z,59.65
2023-05-30T04:22:36.694Z,61.62
2023-05-30T04:27:40.901Z,63.92
2023-05-30T04:32:53.781Z,58.55
2023-05-30T04:37:56.731Z,60.41
2023-05-30T04:43:00.231Z,63.77
2023-05-30T04:48:04.960Z,58.35
2023-05-30T04:53:07.644Z,58.83
2023-05-30T04:58:10.312Z,64.07
2023-05-30T05:03:13.240Z,60.07
2023-05-30T05:08:16.213Z,57.58
2023-05-30T05:13:18.776Z,62.08
2023-05-30T05:18:21.346Z,63.98
2023-05-30T05:23:24.452Z,57.98
2023-05-30T05:28:27.212Z,60.20
2023-05-30T05:33:29.857Z,64.36
2023-05-30T05:38:32.546Z,58.53
2023-05-30T05:43:37.147Z,58.81
2023-05-30T05:48:39.736Z,61.67
2023-05-30T05:53:42.298Z,60.95
2023-05-30T05:58:44.997Z,56.69
2023-05-30T06:03:47.785Z,59.67
2023-05-30T06:08:50.574Z,62.52
2023-05-30T06:13:53.115Z,60.51
2023-05-30T06:18:55.790Z,55.01
2023-05-30T06:23:58.449Z,55.93
2023-05-30T06:29:01.033Z,56.84
2023-05-30T06:34:03.895Z,57.63
2023-05-30T06:39:06.940Z,59.08
2023-05-30T06:44:10.059Z,59.21
2023-05-30T06:49:12.615Z,59.10
2023-05-30T06:54:15.192Z,58.27
2023-05-30T06:59:17.816Z,60.70
2023-05-30T07:04:21.158Z,59.11
2023-05-30T07:09:23.895Z,54.06
2023-05-30T07:14:26.547Z,54.45
2023-05-30T07:19:29.147Z,54.63
2023-05-30T07:24:31.692Z,50.22
2023-05-30T07:29:34.241Z,51.73
2023-05-30T07:34:37.189Z,48.73
2023-05-30T07:39:39.906Z,47.68
2023-05-30T07:44:42.558Z,46.42
2023-05-30T07:49:45.155Z,46.99
2023-05-30T07:54:47.812Z,45.10
2023-05-30T07:59:50.966Z,42.68
2023-05-30T08:04:54.685Z,37.94
2023-05-30T08:09:57.588Z,39.74
2023-05-30T08:15:00.431Z,38.75
2023-05-30T08:20:04.822Z,38.80
2023-05-30T08:25:08.631Z,39.49
2023-05-30T08:30:11.691Z,39.78
2023-05-30T08:35:15.122Z,37.37
2023-05-30T08:40:18.735Z,37.45
2023-05-30T08:45:21.437Z,37.20
2023-05-30T08:50:25.452Z,35.42
2023-05-30T08:55:34.134Z,35.42
2023-05-30T09:00:38.202Z,36.12
2023-05-30T09:05:41.434Z,36.68
2023-05-30T09:10:49.434Z,35.78
2023-05-30T09:15:53.101Z,34.68
2023-05-30T09:20:56.966Z,34.58
2023-05-30T09:26:01.373Z,33.47
2023-05-30T09:31:05.041Z,34.98
2023-05-30T09:36:13.417Z,34.66
2023-05-30T09:41:17.051Z,34.78
2023-05-30T09:46:21.341Z,34.67
2023-05-30T09:51:30.083Z,35.27
2023-05-30T09:56:40.959Z,35.40
2023-05-30T10:01:52.061Z,33.83
2023-05-30T10:06:55.898Z,34.24
2023-05-30T10:12:04.280Z,35.00
2023-05-30T10:17:09.089Z,34.64
2023-05-30T10:22:12.678Z,34.40
2023-05-30T10:27:19.354Z,34.30
2023-05-30T10:32:27.393Z,34.44
2023-05-30T10:37:30.401Z,33.49
2023-05-30T10:42:44.965Z,33.05
2023-05-30T10:48:08.884Z,32.59
2023-05-30T10:53:16.886Z,33.16
2023-05-30T10:58:39.201Z,33.30
2023-05-30T11:03:46.583Z,32.38
2023-05-30T11:08:53.549Z,33.19
2023-05-30T11:13:58.031Z,33.57
2023-05-30T11:19:13.180Z,32.09
2023-05-30T11:24:18.121Z,31.56
2023-05-30T11:29:49.002Z,32.18
2023-05-30T11:35:04.538Z,31.19
2023-05-30T11:40:14.155Z,31.81
2023-05-30T11:45:18.500Z,31.54
2023-05-30T11:50:22.270Z,31.32
2023-05-30T11:55:25.016Z,30.81
2023-05-30T12:00:27.574Z,31.27
2023-05-30T12:05:30.402Z,30.87
2023-05-30T12:10:33.088Z,30.98
2023-05-30T12:15:38.857Z,30.11
2023-05-30T12:20:45.362Z,30.12
2023-05-30T12:25:53.842Z,30.03
2023-05-30T12:30:57.121Z,29.74
2023-05-30T12:35:59.761Z,29.79
2023-05-30T12:41:02.452Z,28.95
2023-05-30T12:46:13.233Z,29.28
2023-05-30T12:51:15.967Z,29.39
2023-05-30T12:56:18.569Z,28.97
2023-05-30T13:01:21.858Z,29.44
2023-05-30T13:06:24.530Z,28.61
2023-05-30T13:11:27.398Z,28.94
2023-05-30T13:16:30.189Z,28.82
2023-05-30T13:21:32.799Z,28.68
2023-05-30T13:26:35.768Z,28.78
2023-05-30T13:31:38.515Z,28.39
2023-05-30T13:36:41.133Z,28.94
2023-05-30T13:41:43.713Z,28.14
2023-05-30T13:46:46.895Z,27.23
2023-05-30T13:51:49.454Z,27.64
2023-05-30T13:56:52.047Z,27.70
2023-05-30T14:01:55.369Z,27.61
2023-05-30T14:06:59.100Z,27.27
2023-05-30T14:12:01.797Z,26.74
2023-05-30T14:17:05.063Z,27.36
2023-05-30T14:22:11.318Z,26.93
2023-05-30T14:27:14.304Z,26.39
2023-05-30T14:32:16.957Z,26.43
2023-05-30T14:37:19.599Z,27.46
2023-05-30T14:42:22.502Z,27.84
2023-05-30T14:47:26.122Z,27.18
2023-05-30T14:52:28.747Z,26.27
2023-05-30T14:57:31.503Z,26.58
2023-05-30T15:02:34.190Z,25.35
2023-05-30T15:07:36.982Z,23.95
2023-05-30T15:12:40.178Z,23.30
2023-05-30T15:17:42.839Z,22.28
2023-05-30T15:22:45.747Z,22.29
2023-05-30T15:27:50.746Z,22.19
2023-05-30T15:32:54.651Z,21.26
2023-05-30T15:37:57.647Z,21.38
2023-05-30T15:43:00.742Z,21.35
2023-05-30T15:48:03.658Z,21.47
2023-05-30T15:53:06.307Z,20.84
2023-05-30T15:58:08.967Z,20.31
2023-05-30T16:03:12.431Z,20.20
2023-05-30T16:08:14.998Z,19.92
2023-05-30T16:13:17.935Z,19.51
2023-05-30T16:18:20.670Z,19.30
2023-05-30T16:23:23.366Z,19.39
2023-05-30T16:28:25.928Z,20.02
2023-05-30T16:33:28.577Z,21.83
2023-05-30T16:38:35.446Z,23.27
2023-05-30T16:43:38.310Z,25.00
2023-05-30T16:48:40.885Z,26.34
2023-05-30T16:53:43.476Z,26.30
2023-05-30T16:58:46.371Z,24.75
2023-05-30T17:03:49.090Z,23.09
2023-05-30T17:08:52.032Z,22.34
2023-05-30T17:13:55.216Z,21.62
2023-05-30T17:18:59.589Z,21.62
2023-05-30T17:24:02.215Z,23.59
2023-05-30T17:29:05.388Z,26.07
2023-05-30T17:34:08.034Z,28.82
2023-05-30T17:39:12.121Z,30.60
2023-05-30T17:44:15.185Z,31.96
2023-05-30T17:49:17.925Z,33.53
2023-05-30T17:54:21.022Z,35.31
2023-05-30T17:59:23.829Z,37.42
2023-05-30T18:04:27.147Z,37.89
2023-05-30T18:09:30.217Z,38.35
2023-05-30T18:14:34.123Z,38.71
2023-05-30T18:19:37.152Z,38.87
2023-05-30T18:24:39.776Z,39.30
2023-05-30T18:29:44.355Z,39.92
2023-05-30T18:34:46.923Z,39.95
2023-05-30T18:39:50.144Z,40.87
2023-05-30T18:44:53.097Z,40.90
2023-05-30T18:49:56.027Z,42.41
2023-05-30T18:54:58.630Z,43.38
2023-05-30T19:00:01.930Z,42.71
2023-05-30T19:05:05.389Z,42.95
2023-05-30T19:10:08.967Z,45.38
2023-05-30T19:15:11.723Z,46.74
2023-05-30T19:20:14.776Z,47.86
2023-05-30T19:25:18.585Z,46.67
2023-05-30T19:30:22.211Z,47.45
2023-05-30T19:35:25.134Z,47.82
2023-05-30T19:40:28.362Z,51.38
2023-05-30T19:45:31.344Z,51.63
2023-05-30T19:50:34.921Z,51.43
2023-05-30T19:55:38.747Z,51.34
2023-05-30T20:00:41.970Z,53.01
2023-05-30T20:05:46.536Z,53.05
2023-05-30T20:10:49.372Z,52.74
2023-05-30T20:15:52.560Z,54.59
2023-05-30T20:20:55.656Z,55.46
2023-05-30T20:25:58.503Z,55.55
2023-05-30T20:31:01.412Z,52.89
2023-05-30T20:36:04.459Z,53.71
2023-05-30T20:41:07.176Z,54.14
2023-05-30T20:46:09.775Z,55.43
2023-05-30T20:51:12.693Z,56.70
2023-05-30T20:56:15.321Z,55.48
2023-05-30T21:01:17.957Z,56.76
2023-05-30T21:06:20.900Z,55.01
2023-05-30T21:11:23.542Z,55.98
2023-05-30T21:16:26.816Z,56.29
2023-05-30T21:21:29.497Z,57.37
2023-05-30T21:26:32.520Z,57.82
2023-05-30T21:31:35.179Z,56.45
2023-05-30T21:36:39.205Z,56.15
2023-05-30T21:41:43.453Z,57.10
2023-05-30T21:46:46.137Z,59.17
2023-05-30T21:51:48.797Z,58.72
2023-05-30T21:56:51.370Z,58.62
2023-05-30T22:01:53.926Z,60.31
2023-05-30T22:06:57.212Z,62.95
2023-05-30T22:11:59.804Z,62.66
2023-05-30T22:17:02.441Z,53.34
2023-05-30T22:22:06.506Z,54.78
2023-05-30T22:27:13.056Z,55.52
2023-05-30T22:32:15.637Z,57.45
2023-05-30T22:37:18.354Z,58.89
2023-05-30T22:42:21.012Z,59.09
2023-05-30T22:47:23.646Z,65.56
2023-05-30T22:52:26.277Z,64.50
2023-05-30T22:57:28.923Z,55.09
2023-05-30T23:02:31.585Z,55.89
2023-05-30T23:07:34.251Z,58.29
2023-05-30T23:12:36.961Z,60.76
2023-05-30T23:17:39.619Z,60.28
2023-05-30T23:22:42.222Z,61.30
2023-05-30T23:27:44.755Z,70.45
2023-05-30T23:32:47.349Z,64.50
2023-05-30T23:37:50.071Z,56.61
2023-05-30T23:42:52.675Z,57.57
2023-05-30T23:47:55.486Z,60.40
2023-05-30T23:52:58.079Z,66.81
2023-05-30T23:58:00.711Z,61.67
